sensor_id;sensor_type;location;lat;lon;timestamp;temperature;humidity
23751;DHT22;12055;52.098;13.176;2022-07-26T00:00:18;19.10;99.90
23751;DHT22;12055;52.098;13.176;2022-07-26T00:02:45;19.10;99.90
23751;DHT22;12055;52.098;13.176;2022-07-26T00:05:10;19.10;99.90
23751;DHT22;12055;52.098;13.176;2022-07-26T00:07:35;19.10;99.90
23751;DHT22;12055;52.098;13.176;2022-07-26T00:10:01;19.10;99.90
23751;DHT22;12055;52.098;13.176;2022-07-26T00:12:27;19.10;99.90
23751;DHT22;12055;52.098;13.176;2022-07-26T00:14:53;19.10;99.90
23751;DHT22;12055;52.098;13.176;2022-07-26T00:17:18;19.10;99.90
23751;DHT22;12055;52.098;13.176;2022-07-26T00:19:44;19.20;99.90
23751;DHT22;12055;52.098;13.176;2022-07-26T00:22:09;19.20;99.90
23751;DHT22;12055;52.098;13.176;2022-07-26T00:24:53;19.10;99.90
23751;DHT22;12055;52.098;13.176;2022-07-26T00:27:18;19.10;99.90
23751;DHT22;12055;52.098;13.176;2022-07-26T00:29:44;19.10;99.90
23751;DHT22;12055;52.098;13.176;2022-07-26T00:32:09;19.20;99.90
23751;DHT22;12055;52.098;13.176;2022-07-26T00:34:35;19.20;99.90
23751;DHT22;12055;52.098;13.176;2022-07-26T00:37:00;19.30;99.90
23751;DHT22;12055;52.098;13.176;2022-07-26T00:39:26;19.20;99.90
23751;DHT22;12055;52.098;13.176;2022-07-26T00:41:53;19.30;99.90
23751;DHT22;12055;52.098;13.176;2022-07-26T00:44:18;19.30;99.90
23751;DHT22;12055;52.098;13.176;2022-07-26T00:46:44;19.30;99.90
23751;DHT22;12055;52.098;13.176;2022-07-26T00:49:10;19.30;99.90
23751;DHT22;12055;52.098;13.176;2022-07-26T00:51:35;19.30;99.90
23751;DHT22;12055;52.098;13.176;2022-07-26T00:54:02;19.30;99.90
23751;DHT22;12055;52.098;13.176;2022-07-26T00:56:28;19.30;99.90
23751;DHT22;12055;52.098;13.176;2022-07-26T00:58:54;19.30;99.90
23751;DHT22;12055;52.098;13.176;2022-07-26T01:01:20;19.30;99.90
23751;DHT22;12055;52.098;13.176;2022-07-26T01:03:45;19.30;99.90
23751;DHT22;12055;52.098;13.176;2022-07-26T01:06:14;19.20;99.90
23751;DHT22;12055;52.098;13.176;2022-07-26T01:08:40;19.30;99.90
23751;DHT22;12055;52.098;13.176;2022-07-26T01:11:05;19.30;99.90
23751;DHT22;12055;52.098;13.176;2022-07-26T01:13:31;19.30;99.90
23751;DHT22;12055;52.098;13.176;2022-07-26T01:15:58;19.30;99.90
23751;DHT22;12055;52.098;13.176;2022-07-26T01:18:23;19.30;99.90
23751;DHT22;12055;52.098;13.176;2022-07-26T01:20:49;19.30;99.90
23751;DHT22;12055;52.098;13.176;2022-07-26T01:23:15;19.20;99.90
23751;DHT22;12055;52.098;13.176;2022-07-26T01:25:41;19.20;99.90
23751;DHT22;12055;52.098;13.176;2022-07-26T01:28:06;19.20;99.90
23751;DHT22;12055;52.098;13.176;2022-07-26T01:30:31;19.20;99.90
23751;DHT22;12055;52.098;13.176;2022-07-26T01:32:57;19.20;99.90
23751;DHT22;12055;52.098;13.176;2022-07-26T01:35:23;19.10;99.90
23751;DHT22;12055;52.098;13.176;2022-07-26T01:37:48;19.10;99.90
23751;DHT22;12055;52.098;13.176;2022-07-26T01:40:13;19.10;99.90
23751;DHT22;12055;52.098;13.176;2022-07-26T01:42:39;19.10;99.90
23751;DHT22;12055;52.098;13.176;2022-07-26T01:45:09;19.10;99.90
23751;DHT22;12055;52.098;13.176;2022-07-26T01:47:34;19.10;99.90
23751;DHT22;12055;52.098;13.176;2022-07-26T01:50:01;19.10;99.90
23751;DHT22;12055;52.098;13.176;2022-07-26T01:52:26;19.00;99.90
23751;DHT22;12055;52.098;13.176;2022-07-26T01:54:52;19.00;99.90
23751;DHT22;12055;52.098;13.176;2022-07-26T01:57:18;19.00;99.90
23751;DHT22;12055;52.098;13.176;2022-07-26T01:59:43;18.90;99.90
23751;DHT22;12055;52.098;13.176;2022-07-26T02:02:09;18.90;99.90
23751;DHT22;12055;52.098;13.176;2022-07-26T02:04:34;18.90;99.90
23751;DHT22;12055;52.098;13.176;2022-07-26T02:07:18;18.80;99.90
23751;DHT22;12055;52.098;13.176;2022-07-26T02:09:44;18.80;99.90
23751;DHT22;12055;52.098;13.176;2022-07-26T02:12:09;18.80;99.90
23751;DHT22;12055;52.098;13.176;2022-07-26T02:14:35;18.80;99.90
23751;DHT22;12055;52.098;13.176;2022-07-26T02:17:00;18.80;99.90
23751;DHT22;12055;52.098;13.176;2022-07-26T02:19:27;18.80;99.90
23751;DHT22;12055;52.098;13.176;2022-07-26T02:21:53;18.80;99.90
23751;DHT22;12055;52.098;13.176;2022-07-26T02:24:19;18.80;99.90
23751;DHT22;12055;52.098;13.176;2022-07-26T02:26:44;18.80;99.90
23751;DHT22;12055;52.098;13.176;2022-07-26T02:29:10;18.80;99.90
23751;DHT22;12055;52.098;13.176;2022-07-26T02:31:35;18.70;99.90
23751;DHT22;12055;52.098;13.176;2022-07-26T02:34:01;18.70;99.90
23751;DHT22;12055;52.098;13.176;2022-07-26T02:36:26;18.70;99.90
23751;DHT22;12055;52.098;13.176;2022-07-26T02:38:52;18.60;99.90
23751;DHT22;12055;52.098;13.176;2022-07-26T02:41:17;18.60;99.90
23751;DHT22;12055;52.098;13.176;2022-07-26T02:43:43;18.60;99.90
23751;DHT22;12055;52.098;13.176;2022-07-26T02:46:08;18.60;99.90
23751;DHT22;12055;52.098;13.176;2022-07-26T02:48:34;18.50;99.90
23751;DHT22;12055;52.098;13.176;2022-07-26T02:51:00;18.50;99.90
23751;DHT22;12055;52.098;13.176;2022-07-26T02:53:26;18.50;99.90
23751;DHT22;12055;52.098;13.176;2022-07-26T02:55:51;18.50;99.90
23751;DHT22;12055;52.098;13.176;2022-07-26T02:58:16;18.50;99.90
23751;DHT22;12055;52.098;13.176;2022-07-26T03:00:44;18.40;99.90
23751;DHT22;12055;52.098;13.176;2022-07-26T03:03:09;18.50;99.90
23751;DHT22;12055;52.098;13.176;2022-07-26T03:05:38;18.50;99.90
23751;DHT22;12055;52.098;13.176;2022-07-26T03:08:04;18.40;99.90
23751;DHT22;12055;52.098;13.176;2022-07-26T03:10:29;18.40;99.90
23751;DHT22;12055;52.098;13.176;2022-07-26T03:12:55;18.40;99.90
23751;DHT22;12055;52.098;13.176;2022-07-26T03:15:20;18.30;99.90
23751;DHT22;12055;52.098;13.176;2022-07-26T03:17:46;18.30;99.90
23751;DHT22;12055;52.098;13.176;2022-07-26T03:20:12;18.30;99.90
23751;DHT22;12055;52.098;13.176;2022-07-26T03:22:37;18.30;99.90
23751;DHT22;12055;52.098;13.176;2022-07-26T03:25:03;18.30;99.90
23751;DHT22;12055;52.098;13.176;2022-07-26T03:27:28;18.30;99.90
23751;DHT22;12055;52.098;13.176;2022-07-26T03:29:54;18.30;99.90
23751;DHT22;12055;52.098;13.176;2022-07-26T03:32:19;18.30;99.90
23751;DHT22;12055;52.098;13.176;2022-07-26T03:34:45;18.20;99.90
23751;DHT22;12055;52.098;13.176;2022-07-26T03:37:10;18.20;99.90
23751;DHT22;12055;52.098;13.176;2022-07-26T03:39:36;18.30;99.90
23751;DHT22;12055;52.098;13.176;2022-07-26T03:42:03;18.20;99.90
23751;DHT22;12055;52.098;13.176;2022-07-26T03:44:28;18.20;99.90
23751;DHT22;12055;52.098;13.176;2022-07-26T03:46:54;18.20;99.90
23751;DHT22;12055;52.098;13.176;2022-07-26T03:49:19;18.20;99.90
23751;DHT22;12055;52.098;13.176;2022-07-26T03:51:45;18.20;99.90
23751;DHT22;12055;52.098;13.176;2022-07-26T03:54:10;18.30;99.90
23751;DHT22;12055;52.098;13.176;2022-07-26T03:56:36;18.30;99.90
23751;DHT22;12055;52.098;13.176;2022-07-26T03:59:08;18.30;99.90
23751;DHT22;12055;52.098;13.176;2022-07-26T04:01:35;18.30;99.90
23751;DHT22;12055;52.098;13.176;2022-07-26T04:04:01;18.30;99.90
23751;DHT22;12055;52.098;13.176;2022-07-26T04:06:27;18.30;99.90
23751;DHT22;12055;52.098;13.176;2022-07-26T04:08:53;18.30;99.90
23751;DHT22;12055;52.098;13.176;2022-07-26T04:11:19;18.30;99.90
23751;DHT22;12055;52.098;13.176;2022-07-26T04:13:44;18.30;99.90
23751;DHT22;12055;52.098;13.176;2022-07-26T04:16:10;18.40;99.90
23751;DHT22;12055;52.098;13.176;2022-07-26T04:18:35;18.40;99.90
23751;DHT22;12055;52.098;13.176;2022-07-26T04:21:01;18.40;99.90
23751;DHT22;12055;52.098;13.176;2022-07-26T04:23:26;18.50;99.90
23751;DHT22;12055;52.098;13.176;2022-07-26T04:25:52;18.50;99.90
23751;DHT22;12055;52.098;13.176;2022-07-26T04:28:17;18.50;99.90
23751;DHT22;12055;52.098;13.176;2022-07-26T04:30:43;18.50;99.90
23751;DHT22;12055;52.098;13.176;2022-07-26T04:33:09;18.60;99.90
23751;DHT22;12055;52.098;13.176;2022-07-26T04:35:34;18.60;99.90
23751;DHT22;12055;52.098;13.176;2022-07-26T04:38:00;18.60;99.90
23751;DHT22;12055;52.098;13.176;2022-07-26T04:40:29;18.70;99.90
23751;DHT22;12055;52.098;13.176;2022-07-26T04:42:59;18.70;99.90
23751;DHT22;12055;52.098;13.176;2022-07-26T04:45:24;18.80;99.90
23751;DHT22;12055;52.098;13.176;2022-07-26T04:47:50;18.80;99.90
23751;DHT22;12055;52.098;13.176;2022-07-26T04:50:17;18.90;99.90
23751;DHT22;12055;52.098;13.176;2022-07-26T04:52:43;18.90;99.90
23751;DHT22;12055;52.098;13.176;2022-07-26T04:55:09;19.00;99.90
23751;DHT22;12055;52.098;13.176;2022-07-26T04:57:35;19.00;99.90
23751;DHT22;12055;52.098;13.176;2022-07-26T05:00:01;19.10;99.90
23751;DHT22;12055;52.098;13.176;2022-07-26T05:02:26;19.10;99.90
23751;DHT22;12055;52.098;13.176;2022-07-26T05:04:52;19.10;99.90
23751;DHT22;12055;52.098;13.176;2022-07-26T05:07:17;19.10;99.90
23751;DHT22;12055;52.098;13.176;2022-07-26T05:09:43;19.00;99.90
23751;DHT22;12055;52.098;13.176;2022-07-26T05:12:08;19.00;99.90
23751;DHT22;12055;52.098;13.176;2022-07-26T05:14:34;19.10;99.90
23751;DHT22;12055;52.098;13.176;2022-07-26T05:17:02;19.10;99.90
23751;DHT22;12055;52.098;13.176;2022-07-26T05:19:27;19.10;99.90
23751;DHT22;12055;52.098;13.176;2022-07-26T05:21:53;19.10;99.90
23751;DHT22;12055;52.098;13.176;2022-07-26T05:24:18;19.20;99.90
23751;DHT22;12055;52.098;13.176;2022-07-26T05:26:44;19.30;99.90
23751;DHT22;12055;52.098;13.176;2022-07-26T05:29:09;19.40;99.90
23751;DHT22;12055;52.098;13.176;2022-07-26T05:31:35;19.50;99.90
23751;DHT22;12055;52.098;13.176;2022-07-26T05:34:00;19.70;99.90
23751;DHT22;12055;52.098;13.176;2022-07-26T05:36:27;19.80;99.90
23751;DHT22;12055;52.098;13.176;2022-07-26T05:38:53;20.00;99.90
23751;DHT22;12055;52.098;13.176;2022-07-26T05:41:18;20.20;99.90
23751;DHT22;12055;52.098;13.176;2022-07-26T05:43:44;20.30;99.90
23751;DHT22;12055;52.098;13.176;2022-07-26T05:46:10;20.40;99.90
23751;DHT22;12055;52.098;13.176;2022-07-26T05:48:37;20.30;99.90
23751;DHT22;12055;52.098;13.176;2022-07-26T05:51:02;20.30;99.90
23751;DHT22;12055;52.098;13.176;2022-07-26T05:53:28;20.40;99.90
23751;DHT22;12055;52.098;13.176;2022-07-26T05:55:53;20.50;99.90
23751;DHT22;12055;52.098;13.176;2022-07-26T05:58:19;20.50;99.90
23751;DHT22;12055;52.098;13.176;2022-07-26T06:00:44;20.60;99.90
23751;DHT22;12055;52.098;13.176;2022-07-26T06:03:10;20.80;99.90
23751;DHT22;12055;52.098;13.176;2022-07-26T06:05:49;20.80;99.90
23751;DHT22;12055;52.098;13.176;2022-07-26T06:08:14;20.90;99.90
23751;DHT22;12055;52.098;13.176;2022-07-26T06:10:40;20.80;99.90
23751;DHT22;12055;52.098;13.176;2022-07-26T06:13:05;20.90;99.90
23751;DHT22;12055;52.098;13.176;2022-07-26T06:15:31;21.20;99.90
23751;DHT22;12055;52.098;13.176;2022-07-26T06:17:56;21.70;99.90
23751;DHT22;12055;52.098;13.176;2022-07-26T06:20:22;21.90;99.90
23751;DHT22;12055;52.098;13.176;2022-07-26T06:22:47;22.10;99.90
23751;DHT22;12055;52.098;13.176;2022-07-26T06:25:13;22.40;99.90
23751;DHT22;12055;52.098;13.176;2022-07-26T06:27:38;22.70;99.90
23751;DHT22;12055;52.098;13.176;2022-07-26T06:30:04;22.80;99.90
23751;DHT22;12055;52.098;13.176;2022-07-26T06:32:31;22.70;99.90
23751;DHT22;12055;52.098;13.176;2022-07-26T06:34:56;22.50;99.90
23751;DHT22;12055;52.098;13.176;2022-07-26T06:37:22;22.40;99.90
23751;DHT22;12055;52.098;13.176;2022-07-26T06:39:47;22.30;99.90
23751;DHT22;12055;52.098;13.176;2022-07-26T06:42:13;22.20;99.90
23751;DHT22;12055;52.098;13.176;2022-07-26T06:44:38;22.40;99.90
23751;DHT22;12055;52.098;13.176;2022-07-26T06:47:04;22.70;99.90
23751;DHT22;12055;52.098;13.176;2022-07-26T06:49:29;23.10;99.90
23751;DHT22;12055;52.098;13.176;2022-07-26T06:51:55;23.50;99.90
23751;DHT22;12055;52.098;13.176;2022-07-26T06:54:22;23.60;99.90
23751;DHT22;12055;52.098;13.176;2022-07-26T06:56:47;23.80;99.90
23751;DHT22;12055;52.098;13.176;2022-07-26T06:59:13;23.80;99.90
23751;DHT22;12055;52.098;13.176;2022-07-26T07:01:38;23.80;99.90
23751;DHT22;12055;52.098;13.176;2022-07-26T07:04:04;23.80;99.90
23751;DHT22;12055;52.098;13.176;2022-07-26T07:06:29;24.00;99.90
23751;DHT22;12055;52.098;13.176;2022-07-26T07:08:55;24.20;99.90
23751;DHT22;12055;52.098;13.176;2022-07-26T07:11:20;24.50;99.90
23751;DHT22;12055;52.098;13.176;2022-07-26T07:13:46;24.40;99.90
23751;DHT22;12055;52.098;13.176;2022-07-26T07:16:11;24.30;99.90
23751;DHT22;12055;52.098;13.176;2022-07-26T07:18:37;24.60;99.90
23751;DHT22;12055;52.098;13.176;2022-07-26T07:21:02;24.80;99.90
23751;DHT22;12055;52.098;13.176;2022-07-26T07:23:28;24.90;99.90
23751;DHT22;12055;52.098;13.176;2022-07-26T07:25:53;25.20;99.90
23751;DHT22;12055;52.098;13.176;2022-07-26T07:28:19;25.40;99.90
23751;DHT22;12055;52.098;13.176;2022-07-26T07:30:44;25.90;99.90
23751;DHT22;12055;52.098;13.176;2022-07-26T07:33:11;25.70;99.90
23751;DHT22;12055;52.098;13.176;2022-07-26T07:35:38;25.50;99.90
23751;DHT22;12055;52.098;13.176;2022-07-26T07:38:04;24.90;99.90
23751;DHT22;12055;52.098;13.176;2022-07-26T07:40:30;24.50;99.90
23751;DHT22;12055;52.098;13.176;2022-07-26T07:42:56;24.40;99.90
23751;DHT22;12055;52.098;13.176;2022-07-26T07:45:22;24.60;99.90
23751;DHT22;12055;52.098;13.176;2022-07-26T07:47:47;24.30;99.90
23751;DHT22;12055;52.098;13.176;2022-07-26T07:50:13;23.90;99.90
23751;DHT22;12055;52.098;13.176;2022-07-26T07:52:38;23.40;99.90
23751;DHT22;12055;52.098;13.176;2022-07-26T07:55:04;22.90;99.90
23751;DHT22;12055;52.098;13.176;2022-07-26T07:57:30;22.60;99.90
23751;DHT22;12055;52.098;13.176;2022-07-26T07:59:55;22.20;99.90
23751;DHT22;12055;52.098;13.176;2022-07-26T08:02:21;22.30;99.90
23751;DHT22;12055;52.098;13.176;2022-07-26T08:04:46;23.20;99.90
23751;DHT22;12055;52.098;13.176;2022-07-26T08:07:12;23.80;99.90
23751;DHT22;12055;52.098;13.176;2022-07-26T08:09:37;24.40;99.90
23751;DHT22;12055;52.098;13.176;2022-07-26T08:12:03;24.90;99.90
23751;DHT22;12055;52.098;13.176;2022-07-26T08:14:29;25.20;99.90
23751;DHT22;12055;52.098;13.176;2022-07-26T08:16:54;25.10;99.90
23751;DHT22;12055;52.098;13.176;2022-07-26T08:19:20;25.20;99.90
23751;DHT22;12055;52.098;13.176;2022-07-26T08:21:45;25.30;99.90
23751;DHT22;12055;52.098;13.176;2022-07-26T08:24:11;25.30;99.90
23751;DHT22;12055;52.098;13.176;2022-07-26T08:26:37;25.30;99.90
23751;DHT22;12055;52.098;13.176;2022-07-26T08:29:03;25.40;99.90
23751;DHT22;12055;52.098;13.176;2022-07-26T08:31:28;25.60;99.90
23751;DHT22;12055;52.098;13.176;2022-07-26T08:33:54;25.80;99.90
23751;DHT22;12055;52.098;13.176;2022-07-26T08:36:19;25.90;99.90
23751;DHT22;12055;52.098;13.176;2022-07-26T08:38:45;26.00;99.90
23751;DHT22;12055;52.098;13.176;2022-07-26T08:41:10;25.80;99.90
23751;DHT22;12055;52.098;13.176;2022-07-26T08:43:36;26.00;99.90
23751;DHT22;12055;52.098;13.176;2022-07-26T08:46:02;26.00;99.90
23751;DHT22;12055;52.098;13.176;2022-07-26T08:48:29;25.80;99.90
23751;DHT22;12055;52.098;13.176;2022-07-26T08:50:56;25.80;99.90
23751;DHT22;12055;52.098;13.176;2022-07-26T08:53:22;25.60;99.90
23751;DHT22;12055;52.098;13.176;2022-07-26T08:55:48;25.30;99.90
23751;DHT22;12055;52.098;13.176;2022-07-26T08:58:14;25.20;99.90
23751;DHT22;12055;52.098;13.176;2022-07-26T09:00:39;25.60;99.90
23751;DHT22;12055;52.098;13.176;2022-07-26T09:03:23;26.20;99.90
23751;DHT22;12055;52.098;13.176;2022-07-26T09:05:48;26.60;99.90
23751;DHT22;12055;52.098;13.176;2022-07-26T09:08:27;27.00;99.90
23751;DHT22;12055;52.098;13.176;2022-07-26T09:10:53;27.50;99.90
23751;DHT22;12055;52.098;13.176;2022-07-26T09:13:19;27.30;99.90
23751;DHT22;12055;52.098;13.176;2022-07-26T09:15:45;26.80;99.90
23751;DHT22;12055;52.098;13.176;2022-07-26T09:18:27;25.90;99.90
23751;DHT22;12055;52.098;13.176;2022-07-26T09:20:52;25.10;99.90
23751;DHT22;12055;52.098;13.176;2022-07-26T09:23:18;24.70;99.90
23751;DHT22;12055;52.098;13.176;2022-07-26T09:25:44;24.50;99.90
23751;DHT22;12055;52.098;13.176;2022-07-26T09:28:29;24.20;99.90
23751;DHT22;12055;52.098;13.176;2022-07-26T09:31:01;23.90;99.90
23751;DHT22;12055;52.098;13.176;2022-07-26T09:33:46;23.60;99.90
23751;DHT22;12055;52.098;13.176;2022-07-26T09:36:12;23.60;99.90
23751;DHT22;12055;52.098;13.176;2022-07-26T09:38:43;24.10;99.90
23751;DHT22;12055;52.098;13.176;2022-07-26T09:41:24;24.60;99.90
23751;DHT22;12055;52.098;13.176;2022-07-26T09:43:51;25.40;99.90
23751;DHT22;12055;52.098;13.176;2022-07-26T09:46:19;25.70;99.90
23751;DHT22;12055;52.098;13.176;2022-07-26T09:48:44;26.00;99.90
23751;DHT22;12055;52.098;13.176;2022-07-26T09:51:10;25.60;99.90
23751;DHT22;12055;52.098;13.176;2022-07-26T09:53:44;25.40;99.90
23751;DHT22;12055;52.098;13.176;2022-07-26T09:56:10;25.40;99.90
23751;DHT22;12055;52.098;13.176;2022-07-26T09:58:36;25.20;99.90
23751;DHT22;12055;52.098;13.176;2022-07-26T10:01:04;25.20;99.90
23751;DHT22;12055;52.098;13.176;2022-07-26T10:03:31;25.00;99.90
23751;DHT22;12055;52.098;13.176;2022-07-26T10:05:57;24.90;99.90
23751;DHT22;12055;52.098;13.176;2022-07-26T10:08:23;24.80;99.90
23751;DHT22;12055;52.098;13.176;2022-07-26T10:11:00;25.10;99.90
23751;DHT22;12055;52.098;13.176;2022-07-26T10:13:26;25.40;99.90
23751;DHT22;12055;52.098;13.176;2022-07-26T10:15:52;25.40;99.90
23751;DHT22;12055;52.098;13.176;2022-07-26T10:21:24;25.40;99.90
23751;DHT22;12055;52.098;13.176;2022-07-26T10:23:54;25.40;99.90
23751;DHT22;12055;52.098;13.176;2022-07-26T10:34:39;25.10;99.90
23751;DHT22;12055;52.098;13.176;2022-07-26T10:37:06;24.90;99.90
23751;DHT22;12055;52.098;13.176;2022-07-26T10:39:33;24.70;99.90
23751;DHT22;12055;52.098;13.176;2022-07-26T10:42:01;24.60;99.90
23751;DHT22;12055;52.098;13.176;2022-07-26T10:44:29;24.70;99.90
23751;DHT22;12055;52.098;13.176;2022-07-26T10:49:39;24.90;99.90
23751;DHT22;12055;52.098;13.176;2022-07-26T10:54:31;25.40;99.90
23751;DHT22;12055;52.098;13.176;2022-07-26T10:56:56;25.40;99.90
23751;DHT22;12055;52.098;13.176;2022-07-26T10:59:30;25.30;99.90
23751;DHT22;12055;52.098;13.176;2022-07-26T11:01:56;24.80;99.90
23751;DHT22;12055;52.098;13.176;2022-07-26T11:04:22;24.40;99.90
23751;DHT22;12055;52.098;13.176;2022-07-26T11:06:49;24.20;99.90
23751;DHT22;12055;52.098;13.176;2022-07-26T11:09:14;23.90;99.90
23751;DHT22;12055;52.098;13.176;2022-07-26T11:11:41;23.60;99.90
23751;DHT22;12055;52.098;13.176;2022-07-26T11:14:09;23.10;99.90
23751;DHT22;12055;52.098;13.176;2022-07-26T11:16:45;22.20;99.90
23751;DHT22;12055;52.098;13.176;2022-07-26T11:19:16;21.50;99.90
23751;DHT22;12055;52.098;13.176;2022-07-26T11:21:52;21.30;99.90
23751;DHT22;12055;52.098;13.176;2022-07-26T11:24:17;21.60;99.90
23751;DHT22;12055;52.098;13.176;2022-07-26T11:26:45;22.00;99.90
23751;DHT22;12055;52.098;13.176;2022-07-26T11:29:11;22.40;99.90
23751;DHT22;12055;52.098;13.176;2022-07-26T11:31:42;22.70;99.90
23751;DHT22;12055;52.098;13.176;2022-07-26T11:34:16;23.10;99.90
23751;DHT22;12055;52.098;13.176;2022-07-26T11:36:43;23.40;99.90
23751;DHT22;12055;52.098;13.176;2022-07-26T11:39:11;24.00;99.90
23751;DHT22;12055;52.098;13.176;2022-07-26T11:41:38;24.40;99.90
23751;DHT22;12055;52.098;13.176;2022-07-26T11:44:04;24.60;99.90
23751;DHT22;12055;52.098;13.176;2022-07-26T11:46:35;24.70;99.90
23751;DHT22;12055;52.098;13.176;2022-07-26T11:49:01;24.90;99.90
23751;DHT22;12055;52.098;13.176;2022-07-26T11:51:27;25.20;99.90
23751;DHT22;12055;52.098;13.176;2022-07-26T11:53:53;25.50;99.90
23751;DHT22;12055;52.098;13.176;2022-07-26T11:56:25;26.20;99.90
23751;DHT22;12055;52.098;13.176;2022-07-26T11:58:53;26.40;99.90
23751;DHT22;12055;52.098;13.176;2022-07-26T12:01:21;26.40;99.90
23751;DHT22;12055;52.098;13.176;2022-07-26T12:03:49;25.90;99.90
23751;DHT22;12055;52.098;13.176;2022-07-26T12:06:22;26.20;99.90
23751;DHT22;12055;52.098;13.176;2022-07-26T12:08:55;26.60;99.90
23751;DHT22;12055;52.098;13.176;2022-07-26T12:11:24;26.80;99.90
23751;DHT22;12055;52.098;13.176;2022-07-26T12:13:58;26.90;99.90
23751;DHT22;12055;52.098;13.176;2022-07-26T12:16:46;26.70;99.90
23751;DHT22;12055;52.098;13.176;2022-07-26T12:21:46;26.00;99.90
23751;DHT22;12055;52.098;13.176;2022-07-26T12:24:32;25.80;99.90
23751;DHT22;12055;52.098;13.176;2022-07-26T12:29:31;24.80;99.90
23751;DHT22;12055;52.098;13.176;2022-07-26T12:32:15;24.50;99.90
23751;DHT22;12055;52.098;13.176;2022-07-26T12:34:55;22.90;99.90
23751;DHT22;12055;52.098;13.176;2022-07-26T12:37:21;21.80;99.90
23751;DHT22;12055;52.098;13.176;2022-07-26T12:40:08;21.30;99.90
23751;DHT22;12055;52.098;13.176;2022-07-26T12:42:36;21.00;99.90
23751;DHT22;12055;52.098;13.176;2022-07-26T12:45:04;20.30;99.90
23751;DHT22;12055;52.098;13.176;2022-07-26T12:47:30;19.90;99.90
23751;DHT22;12055;52.098;13.176;2022-07-26T12:49:56;19.80;99.90
23751;DHT22;12055;52.098;13.176;2022-07-26T12:52:22;19.80;99.90
23751;DHT22;12055;52.098;13.176;2022-07-26T12:54:50;19.80;99.90
23751;DHT22;12055;52.098;13.176;2022-07-26T12:57:18;19.90;99.90
23751;DHT22;12055;52.098;13.176;2022-07-26T12:59:45;20.00;99.90
23751;DHT22;12055;52.098;13.176;2022-07-26T13:02:11;20.10;99.90
23751;DHT22;12055;52.098;13.176;2022-07-26T13:04:37;20.30;99.90
23751;DHT22;12055;52.098;13.176;2022-07-26T13:07:04;20.60;99.90
23751;DHT22;12055;52.098;13.176;2022-07-26T13:09:30;20.80;99.90
23751;DHT22;12055;52.098;13.176;2022-07-26T13:11:58;21.00;99.90
23751;DHT22;12055;52.098;13.176;2022-07-26T13:14:23;21.10;99.90
23751;DHT22;12055;52.098;13.176;2022-07-26T13:16:49;21.10;99.90
23751;DHT22;12055;52.098;13.176;2022-07-26T13:19:15;21.30;99.90
23751;DHT22;12055;52.098;13.176;2022-07-26T13:21:40;21.30;99.90
23751;DHT22;12055;52.098;13.176;2022-07-26T13:24:06;21.60;99.90
23751;DHT22;12055;52.098;13.176;2022-07-26T13:26:31;21.90;99.90
23751;DHT22;12055;52.098;13.176;2022-07-26T13:28:57;22.50;99.90
23751;DHT22;12055;52.098;13.176;2022-07-26T13:31:22;23.50;99.90
23751;DHT22;12055;52.098;13.176;2022-07-26T13:33:48;24.40;99.90
23751;DHT22;12055;52.098;13.176;2022-07-26T13:36:13;24.10;99.90
23751;DHT22;12055;52.098;13.176;2022-07-26T13:38:39;23.70;99.90
23751;DHT22;12055;52.098;13.176;2022-07-26T13:41:05;23.30;99.90
23751;DHT22;12055;52.098;13.176;2022-07-26T13:43:30;23.00;99.90
23751;DHT22;12055;52.098;13.176;2022-07-26T13:45:57;22.90;99.90
23751;DHT22;12055;52.098;13.176;2022-07-26T13:48:22;22.90;99.90
23751;DHT22;12055;52.098;13.176;2022-07-26T13:50:48;23.00;99.90
23751;DHT22;12055;52.098;13.176;2022-07-26T13:53:14;23.50;99.90
23751;DHT22;12055;52.098;13.176;2022-07-26T13:55:39;24.00;99.90
23751;DHT22;12055;52.098;13.176;2022-07-26T13:58:05;23.70;99.90
23751;DHT22;12055;52.098;13.176;2022-07-26T14:00:30;23.80;99.90
23751;DHT22;12055;52.098;13.176;2022-07-26T14:02:57;23.80;99.90
23751;DHT22;12055;52.098;13.176;2022-07-26T14:05:23;23.40;99.90
23751;DHT22;12055;52.098;13.176;2022-07-26T14:07:49;22.90;99.90
23751;DHT22;12055;52.098;13.176;2022-07-26T14:10:15;22.60;99.90
23751;DHT22;12055;52.098;13.176;2022-07-26T14:12:40;23.40;99.90
23751;DHT22;12055;52.098;13.176;2022-07-26T14:15:06;23.60;99.90
23751;DHT22;12055;52.098;13.176;2022-07-26T14:17:35;24.40;99.90
23751;DHT22;12055;52.098;13.176;2022-07-26T14:20:02;25.00;99.90
23751;DHT22;12055;52.098;13.176;2022-07-26T14:22:28;25.20;99.90
23751;DHT22;12055;52.098;13.176;2022-07-26T14:24:54;26.20;99.90
23751;DHT22;12055;52.098;13.176;2022-07-26T14:27:19;26.40;99.90
23751;DHT22;12055;52.098;13.176;2022-07-26T14:29:45;26.20;99.90
23751;DHT22;12055;52.098;13.176;2022-07-26T14:32:11;25.80;99.90
23751;DHT22;12055;52.098;13.176;2022-07-26T14:34:43;25.70;99.90
23751;DHT22;12055;52.098;13.176;2022-07-26T14:37:09;25.70;99.90
23751;DHT22;12055;52.098;13.176;2022-07-26T14:39:34;25.50;99.90
23751;DHT22;12055;52.098;13.176;2022-07-26T14:42:00;25.20;99.90
23751;DHT22;12055;52.098;13.176;2022-07-26T14:44:26;24.60;99.90
23751;DHT22;12055;52.098;13.176;2022-07-26T14:46:52;24.40;99.90
23751;DHT22;12055;52.098;13.176;2022-07-26T14:49:17;24.60;99.90
23751;DHT22;12055;52.098;13.176;2022-07-26T14:51:43;25.20;99.90
23751;DHT22;12055;52.098;13.176;2022-07-26T14:54:08;25.50;99.90
23751;DHT22;12055;52.098;13.176;2022-07-26T14:56:36;25.70;99.90
23751;DHT22;12055;52.098;13.176;2022-07-26T14:59:24;27.20;99.90
23751;DHT22;12055;52.098;13.176;2022-07-26T15:01:50;27.80;99.90
23751;DHT22;12055;52.098;13.176;2022-07-26T15:04:15;27.40;99.90
23751;DHT22;12055;52.098;13.176;2022-07-26T15:06:41;26.30;99.90
23751;DHT22;12055;52.098;13.176;2022-07-26T15:09:06;25.00;99.90
23751;DHT22;12055;52.098;13.176;2022-07-26T15:11:32;24.90;99.90
23751;DHT22;12055;52.098;13.176;2022-07-26T15:13:58;24.90;99.90
23751;DHT22;12055;52.098;13.176;2022-07-26T15:16:23;24.40;99.90
23751;DHT22;12055;52.098;13.176;2022-07-26T15:18:50;24.60;99.90
23751;DHT22;12055;52.098;13.176;2022-07-26T15:21:15;25.20;99.90
23751;DHT22;12055;52.098;13.176;2022-07-26T15:23:41;24.80;99.90
23751;DHT22;12055;52.098;13.176;2022-07-26T15:26:07;25.00;99.90
23751;DHT22;12055;52.098;13.176;2022-07-26T15:28:32;25.60;99.90
23751;DHT22;12055;52.098;13.176;2022-07-26T15:30:58;26.00;99.90
23751;DHT22;12055;52.098;13.176;2022-07-26T15:33:23;26.20;99.90